Terminal Aerodrome Forecast
Issued by NWS

Home | Current Version | Previous Version | Text Only | Print | Product List | Glossary On
Versions: 1 2 3 4 5 6 7 8 9 10 11 12
000
FTUS43 KAPX 021818 RRA
TAFMBL
TAF
KMBL 021818Z 0218/0318 34010KT P6SM SCT070
     FM030000 35005KT P6SM SCT250
     FM031200 20004KT P6SM FEW250
     FM031600 24008KT P6SM SCT250
      AMD LTD TO CLD VIS AND WIND=

USA.gov is the U.S. government's official web portal to all federal, state and local government web resources and services.